sensor_id;sensor_type;location;lat;lon;timestamp;P1;P2;P0
38288;PMS5003;24092;53.370;-6.588;2022-09-01T00:02:22;13;13;
38288;PMS5003;24092;53.370;-6.588;2022-09-01T00:04:50;8;7;
38288;PMS5003;24092;53.370;-6.588;2022-09-01T00:07:17;5;5;
38288;PMS5003;24092;53.370;-6.588;2022-09-01T00:09:44;10;10;
38288;PMS5003;24092;53.370;-6.588;2022-09-01T00:12:11;8;8;
38288;PMS5003;24092;53.370;-6.588;2022-09-01T00:14:39;10;9;
38288;PMS5003;24092;53.370;-6.588;2022-09-01T00:17:08;13;11;
38288;PMS5003;24092;53.370;-6.588;2022-09-01T00:19:37;10;9;
38288;PMS5003;24092;53.370;-6.588;2022-09-01T00:22:05;11;11;
38288;PMS5003;24092;53.370;-6.588;2022-09-01T00:24:33;9;7;
38288;PMS5003;24092;53.370;-6.588;2022-09-01T00:27:01;10;9;
38288;PMS5003;24092;53.370;-6.588;2022-09-01T00:29:28;21;18;
38288;PMS5003;24092;53.370;-6.588;2022-09-01T00:31:55;9;9;
38288;PMS5003;24092;53.370;-6.588;2022-09-01T00:34:23;17;16;
38288;PMS5003;24092;53.370;-6.588;2022-09-01T00:36:50;14;13;
38288;PMS5003;24092;53.370;-6.588;2022-09-01T00:39:17;9;9;
38288;PMS5003;24092;53.370;-6.588;2022-09-01T00:41:45;14;13;
38288;PMS5003;24092;53.370;-6.588;2022-09-01T00:44:13;9;8;
38288;PMS5003;24092;53.370;-6.588;2022-09-01T00:46:43;14;11;
38288;PMS5003;24092;53.370;-6.588;2022-09-01T00:49:14;12;12;
38288;PMS5003;24092;53.370;-6.588;2022-09-01T00:51:46;13;13;
38288;PMS5003;24092;53.370;-6.588;2022-09-01T00:54:17;9;8;
38288;PMS5003;24092;53.370;-6.588;2022-09-01T00:56:47;9;8;
38288;PMS5003;24092;53.370;-6.588;2022-09-01T00:59:16;17;16;
38288;PMS5003;24092;53.370;-6.588;2022-09-01T01:01:46;11;11;
38288;PMS5003;24092;53.370;-6.588;2022-09-01T01:04:14;19;17;
38288;PMS5003;24092;53.370;-6.588;2022-09-01T01:06:41;12;10;
38288;PMS5003;24092;53.370;-6.588;2022-09-01T01:09:10;12;11;
38288;PMS5003;24092;53.370;-6.588;2022-09-01T01:11:37;20;18;
38288;PMS5003;24092;53.370;-6.588;2022-09-01T01:14:06;11;9;
38288;PMS5003;24092;53.370;-6.588;2022-09-01T01:16:34;12;11;
38288;PMS5003;24092;53.370;-6.588;2022-09-01T01:19:02;11;10;
38288;PMS5003;24092;53.370;-6.588;2022-09-01T01:21:31;19;17;
38288;PMS5003;24092;53.370;-6.588;2022-09-01T01:24:07;12;10;
38288;PMS5003;24092;53.370;-6.588;2022-09-01T01:26:43;11;9;
38288;PMS5003;24092;53.370;-6.588;2022-09-01T01:29:10;23;20;
38288;PMS5003;24092;53.370;-6.588;2022-09-01T01:31:37;13;12;
38288;PMS5003;24092;53.370;-6.588;2022-09-01T01:34:04;13;13;
38288;PMS5003;24092;53.370;-6.588;2022-09-01T01:36:32;15;12;
38288;PMS5003;24092;53.370;-6.588;2022-09-01T01:39:03;14;12;
38288;PMS5003;24092;53.370;-6.588;2022-09-01T01:41:34;12;11;
38288;PMS5003;24092;53.370;-6.588;2022-09-01T01:44:02;10;9;
38288;PMS5003;24092;53.370;-6.588;2022-09-01T01:46:30;12;12;
38288;PMS5003;24092;53.370;-6.588;2022-09-01T01:48:58;13;12;
38288;PMS5003;24092;53.370;-6.588;2022-09-01T01:51:25;14;12;
38288;PMS5003;24092;53.370;-6.588;2022-09-01T01:53:53;14;13;
38288;PMS5003;24092;53.370;-6.588;2022-09-01T01:56:21;17;15;
38288;PMS5003;24092;53.370;-6.588;2022-09-01T01:58:49;15;14;
38288;PMS5003;24092;53.370;-6.588;2022-09-01T02:01:16;18;16;
38288;PMS5003;24092;53.370;-6.588;2022-09-01T02:03:44;16;12;
38288;PMS5003;24092;53.370;-6.588;2022-09-01T02:06:11;11;9;
38288;PMS5003;24092;53.370;-6.588;2022-09-01T02:08:39;13;10;
38288;PMS5003;24092;53.370;-6.588;2022-09-01T02:11:07;11;10;
38288;PMS5003;24092;53.370;-6.588;2022-09-01T02:13:34;9;9;
38288;PMS5003;24092;53.370;-6.588;2022-09-01T02:16:02;9;9;
38288;PMS5003;24092;53.370;-6.588;2022-09-01T02:18:33;7;7;
38288;PMS5003;24092;53.370;-6.588;2022-09-01T02:21:03;8;8;
38288;PMS5003;24092;53.370;-6.588;2022-09-01T02:23:33;11;9;
38288;PMS5003;24092;53.370;-6.588;2022-09-01T02:25:59;9;9;
38288;PMS5003;24092;53.370;-6.588;2022-09-01T02:28:28;8;8;
38288;PMS5003;24092;53.370;-6.588;2022-09-01T02:30:58;6;6;
38288;PMS5003;24092;53.370;-6.588;2022-09-01T02:33:25;7;7;
38288;PMS5003;24092;53.370;-6.588;2022-09-01T02:35:55;8;6;
38288;PMS5003;24092;53.370;-6.588;2022-09-01T02:38:24;7;6;
38288;PMS5003;24092;53.370;-6.588;2022-09-01T02:40:52;5;5;
38288;PMS5003;24092;53.370;-6.588;2022-09-01T02:43:20;5;5;
38288;PMS5003;24092;53.370;-6.588;2022-09-01T02:45:48;7;7;
38288;PMS5003;24092;53.370;-6.588;2022-09-01T02:48:16;10;9;
38288;PMS5003;24092;53.370;-6.588;2022-09-01T02:50:43;8;7;
38288;PMS5003;24092;53.370;-6.588;2022-09-01T02:53:10;10;9;
38288;PMS5003;24092;53.370;-6.588;2022-09-01T02:55:38;10;8;
38288;PMS5003;24092;53.370;-6.588;2022-09-01T02:58:06;10;9;
38288;PMS5003;24092;53.370;-6.588;2022-09-01T03:00:33;9;9;
38288;PMS5003;24092;53.370;-6.588;2022-09-01T03:03:00;10;8;
38288;PMS5003;24092;53.370;-6.588;2022-09-01T03:05:30;7;5;
38288;PMS5003;24092;53.370;-6.588;2022-09-01T03:07:58;7;6;
38288;PMS5003;24092;53.370;-6.588;2022-09-01T03:10:28;11;11;
38288;PMS5003;24092;53.370;-6.588;2022-09-01T03:12:58;10;8;
38288;PMS5003;24092;53.370;-6.588;2022-09-01T03:15:26;10;8;
38288;PMS5003;24092;53.370;-6.588;2022-09-01T03:17:54;8;8;
38288;PMS5003;24092;53.370;-6.588;2022-09-01T03:20:22;11;10;
38288;PMS5003;24092;53.370;-6.588;2022-09-01T03:22:50;8;8;
38288;PMS5003;24092;53.370;-6.588;2022-09-01T03:25:17;7;7;
38288;PMS5003;24092;53.370;-6.588;2022-09-01T03:27:44;5;5;
38288;PMS5003;24092;53.370;-6.588;2022-09-01T03:30:12;8;5;
38288;PMS5003;24092;53.370;-6.588;2022-09-01T03:32:40;8;6;
38288;PMS5003;24092;53.370;-6.588;2022-09-01T03:35:07;6;5;
38288;PMS5003;24092;53.370;-6.588;2022-09-01T03:37:34;5;5;
38288;PMS5003;24092;53.370;-6.588;2022-09-01T03:40:02;6;5;
38288;PMS5003;24092;53.370;-6.588;2022-09-01T03:42:30;5;5;
38288;PMS5003;24092;53.370;-6.588;2022-09-01T03:44:57;6;5;
38288;PMS5003;24092;53.370;-6.588;2022-09-01T03:47:24;7;5;
38288;PMS5003;24092;53.370;-6.588;2022-09-01T03:49:52;8;8;
38288;PMS5003;24092;53.370;-6.588;2022-09-01T03:52:18;6;4;
38288;PMS5003;24092;53.370;-6.588;2022-09-01T03:54:45;6;5;
38288;PMS5003;24092;53.370;-6.588;2022-09-01T03:57:12;8;7;
38288;PMS5003;24092;53.370;-6.588;2022-09-01T03:59:39;7;6;
38288;PMS5003;24092;53.370;-6.588;2022-09-01T04:02:06;12;10;
38288;PMS5003;24092;53.370;-6.588;2022-09-01T04:04:33;7;6;
38288;PMS5003;24092;53.370;-6.588;2022-09-01T04:07:01;7;6;
38288;PMS5003;24092;53.370;-6.588;2022-09-01T04:09:28;7;5;
38288;PMS5003;24092;53.370;-6.588;2022-09-01T04:11:57;8;7;
38288;PMS5003;24092;53.370;-6.588;2022-09-01T04:14:24;7;7;
38288;PMS5003;24092;53.370;-6.588;2022-09-01T04:16:51;9;9;
38288;PMS5003;24092;53.370;-6.588;2022-09-01T04:19:19;11;11;
38288;PMS5003;24092;53.370;-6.588;2022-09-01T04:21:48;8;7;
38288;PMS5003;24092;53.370;-6.588;2022-09-01T04:24:16;9;9;
38288;PMS5003;24092;53.370;-6.588;2022-09-01T04:26:44;10;9;
38288;PMS5003;24092;53.370;-6.588;2022-09-01T04:29:13;11;9;
38288;PMS5003;24092;53.370;-6.588;2022-09-01T04:31:41;12;9;
38288;PMS5003;24092;53.370;-6.588;2022-09-01T04:34:08;12;9;
38288;PMS5003;24092;53.370;-6.588;2022-09-01T04:36:35;9;9;
38288;PMS5003;24092;53.370;-6.588;2022-09-01T04:39:03;8;8;
38288;PMS5003;24092;53.370;-6.588;2022-09-01T04:41:31;9;9;
38288;PMS5003;24092;53.370;-6.588;2022-09-01T04:43:59;13;10;
38288;PMS5003;24092;53.370;-6.588;2022-09-01T04:46:27;9;9;
38288;PMS5003;24092;53.370;-6.588;2022-09-01T04:48:54;9;9;
38288;PMS5003;24092;53.370;-6.588;2022-09-01T04:51:23;10;10;
38288;PMS5003;24092;53.370;-6.588;2022-09-01T04:53:50;11;11;
38288;PMS5003;24092;53.370;-6.588;2022-09-01T04:56:18;10;9;
38288;PMS5003;24092;53.370;-6.588;2022-09-01T04:58:46;11;9;
38288;PMS5003;24092;53.370;-6.588;2022-09-01T05:01:14;12;12;
38288;PMS5003;24092;53.370;-6.588;2022-09-01T05:03:42;13;11;
38288;PMS5003;24092;53.370;-6.588;2022-09-01T05:06:12;10;10;
38288;PMS5003;24092;53.370;-6.588;2022-09-01T05:08:39;12;12;
38288;PMS5003;24092;53.370;-6.588;2022-09-01T05:16:11;11;10;
38288;PMS5003;24092;53.370;-6.588;2022-09-01T05:18:40;11;10;
38288;PMS5003;24092;53.370;-6.588;2022-09-01T05:21:08;11;10;
38288;PMS5003;24092;53.370;-6.588;2022-09-01T05:23:36;12;12;
38288;PMS5003;24092;53.370;-6.588;2022-09-01T05:26:03;10;9;
38288;PMS5003;24092;53.370;-6.588;2022-09-01T05:28:30;12;11;
38288;PMS5003;24092;53.370;-6.588;2022-09-01T05:30:58;9;9;
38288;PMS5003;24092;53.370;-6.588;2022-09-01T05:33:25;12;12;
38288;PMS5003;24092;53.370;-6.588;2022-09-01T05:35:53;12;11;
38288;PMS5003;24092;53.370;-6.588;2022-09-01T05:38:22;11;10;
38288;PMS5003;24092;53.370;-6.588;2022-09-01T05:40:54;11;11;
38288;PMS5003;24092;53.370;-6.588;2022-09-01T05:43:22;11;10;
38288;PMS5003;24092;53.370;-6.588;2022-09-01T05:45:50;11;10;
38288;PMS5003;24092;53.370;-6.588;2022-09-01T05:48:17;9;9;
38288;PMS5003;24092;53.370;-6.588;2022-09-01T05:50:44;14;10;
38288;PMS5003;24092;53.370;-6.588;2022-09-01T05:53:11;11;10;
38288;PMS5003;24092;53.370;-6.588;2022-09-01T05:55:38;12;10;
38288;PMS5003;24092;53.370;-6.588;2022-09-01T05:58:05;12;11;
38288;PMS5003;24092;53.370;-6.588;2022-09-01T06:00:32;12;11;
38288;PMS5003;24092;53.370;-6.588;2022-09-01T06:02:58;10;10;
38288;PMS5003;24092;53.370;-6.588;2022-09-01T06:05:25;10;9;
38288;PMS5003;24092;53.370;-6.588;2022-09-01T06:07:53;10;9;
38288;PMS5003;24092;53.370;-6.588;2022-09-01T06:10:20;12;11;
38288;PMS5003;24092;53.370;-6.588;2022-09-01T06:12:47;9;9;
38288;PMS5003;24092;53.370;-6.588;2022-09-01T06:15:14;11;11;
38288;PMS5003;24092;53.370;-6.588;2022-09-01T06:17:41;10;10;
38288;PMS5003;24092;53.370;-6.588;2022-09-01T06:20:08;12;11;
38288;PMS5003;24092;53.370;-6.588;2022-09-01T06:22:35;11;10;
38288;PMS5003;24092;53.370;-6.588;2022-09-01T06:25:02;11;11;
38288;PMS5003;24092;53.370;-6.588;2022-09-01T06:27:30;14;11;
38288;PMS5003;24092;53.370;-6.588;2022-09-01T06:29:58;10;10;
38288;PMS5003;24092;53.370;-6.588;2022-09-01T06:32:24;13;13;
38288;PMS5003;24092;53.370;-6.588;2022-09-01T06:34:52;9;9;
38288;PMS5003;24092;53.370;-6.588;2022-09-01T06:37:20;11;11;
38288;PMS5003;24092;53.370;-6.588;2022-09-01T06:39:47;9;9;
38288;PMS5003;24092;53.370;-6.588;2022-09-01T06:42:14;10;10;
38288;PMS5003;24092;53.370;-6.588;2022-09-01T06:44:42;11;11;
38288;PMS5003;24092;53.370;-6.588;2022-09-01T06:47:09;13;11;
38288;PMS5003;24092;53.370;-6.588;2022-09-01T06:49:36;12;12;
38288;PMS5003;24092;53.370;-6.588;2022-09-01T06:52:04;12;11;
38288;PMS5003;24092;53.370;-6.588;2022-09-01T06:54:31;18;16;
38288;PMS5003;24092;53.370;-6.588;2022-09-01T06:56:58;12;11;
38288;PMS5003;24092;53.370;-6.588;2022-09-01T06:59:27;31;29;
38288;PMS5003;24092;53.370;-6.588;2022-09-01T07:01:54;14;13;
38288;PMS5003;24092;53.370;-6.588;2022-09-01T07:04:21;11;9;
38288;PMS5003;24092;53.370;-6.588;2022-09-01T07:06:48;9;9;
38288;PMS5003;24092;53.370;-6.588;2022-09-01T07:09:15;10;10;
38288;PMS5003;24092;53.370;-6.588;2022-09-01T07:11:42;13;13;
38288;PMS5003;24092;53.370;-6.588;2022-09-01T07:14:09;12;10;
38288;PMS5003;24092;53.370;-6.588;2022-09-01T07:16:36;11;11;
38288;PMS5003;24092;53.370;-6.588;2022-09-01T07:19:04;11;9;
38288;PMS5003;24092;53.370;-6.588;2022-09-01T07:21:32;11;11;
38288;PMS5003;24092;53.370;-6.588;2022-09-01T07:23:59;11;10;
38288;PMS5003;24092;53.370;-6.588;2022-09-01T07:26:26;10;10;
38288;PMS5003;24092;53.370;-6.588;2022-09-01T07:28:54;10;8;
38288;PMS5003;24092;53.370;-6.588;2022-09-01T07:31:22;9;8;
38288;PMS5003;24092;53.370;-6.588;2022-09-01T07:33:51;12;10;
38288;PMS5003;24092;53.370;-6.588;2022-09-01T07:36:19;13;12;
38288;PMS5003;24092;53.370;-6.588;2022-09-01T07:38:47;15;12;
38288;PMS5003;24092;53.370;-6.588;2022-09-01T07:41:13;10;10;
38288;PMS5003;24092;53.370;-6.588;2022-09-01T07:43:40;11;11;
38288;PMS5003;24092;53.370;-6.588;2022-09-01T07:46:08;8;7;
38288;PMS5003;24092;53.370;-6.588;2022-09-01T07:48:36;14;13;
38288;PMS5003;24092;53.370;-6.588;2022-09-01T07:51:04;13;13;
38288;PMS5003;24092;53.370;-6.588;2022-09-01T07:53:32;12;10;
38288;PMS5003;24092;53.370;-6.588;2022-09-01T07:56:04;15;14;
38288;PMS5003;24092;53.370;-6.588;2022-09-01T07:58:33;13;12;
38288;PMS5003;24092;53.370;-6.588;2022-09-01T08:01:04;19;16;
38288;PMS5003;24092;53.370;-6.588;2022-09-01T08:03:33;12;10;
38288;PMS5003;24092;53.370;-6.588;2022-09-01T08:06:02;16;13;
38288;PMS5003;24092;53.370;-6.588;2022-09-01T08:08:30;13;11;
38288;PMS5003;24092;53.370;-6.588;2022-09-01T08:10:57;8;7;
38288;PMS5003;24092;53.370;-6.588;2022-09-01T08:13:24;13;11;
38288;PMS5003;24092;53.370;-6.588;2022-09-01T08:15:51;8;8;
38288;PMS5003;24092;53.370;-6.588;2022-09-01T08:18:19;9;8;
38288;PMS5003;24092;53.370;-6.588;2022-09-01T08:20:46;8;8;
38288;PMS5003;24092;53.370;-6.588;2022-09-01T08:23:14;13;12;
38288;PMS5003;24092;53.370;-6.588;2022-09-01T08:25:44;9;9;
38288;PMS5003;24092;53.370;-6.588;2022-09-01T08:28:13;7;6;
38288;PMS5003;24092;53.370;-6.588;2022-09-01T08:30:41;6;6;
38288;PMS5003;24092;53.370;-6.588;2022-09-01T08:33:09;8;8;
38288;PMS5003;24092;53.370;-6.588;2022-09-01T08:35:37;6;6;
38288;PMS5003;24092;53.370;-6.588;2022-09-01T08:38:05;12;12;
38288;PMS5003;24092;53.370;-6.588;2022-09-01T08:40:32;8;6;
38288;PMS5003;24092;53.370;-6.588;2022-09-01T08:43:03;9;8;
38288;PMS5003;24092;53.370;-6.588;2022-09-01T08:45:41;7;6;
38288;PMS5003;24092;53.370;-6.588;2022-09-01T08:48:14;7;7;
38288;PMS5003;24092;53.370;-6.588;2022-09-01T08:50:44;6;6;
38288;PMS5003;24092;53.370;-6.588;2022-09-01T08:53:18;8;7;
38288;PMS5003;24092;53.370;-6.588;2022-09-01T08:55:53;7;7;
38288;PMS5003;24092;53.370;-6.588;2022-09-01T08:58:22;10;10;
38288;PMS5003;24092;53.370;-6.588;2022-09-01T09:00:52;11;8;
38288;PMS5003;24092;53.370;-6.588;2022-09-01T09:03:24;8;6;
38288;PMS5003;24092;53.370;-6.588;2022-09-01T09:06:02;9;8;
38288;PMS5003;24092;53.370;-6.588;2022-09-01T09:08:40;5;5;
38288;PMS5003;24092;53.370;-6.588;2022-09-01T09:11:19;6;5;
38288;PMS5003;24092;53.370;-6.588;2022-09-01T09:14:07;9;9;
38288;PMS5003;24092;53.370;-6.588;2022-09-01T09:16:41;8;8;
38288;PMS5003;24092;53.370;-6.588;2022-09-01T09:19:10;6;6;
38288;PMS5003;24092;53.370;-6.588;2022-09-01T09:21:45;5;5;
38288;PMS5003;24092;53.370;-6.588;2022-09-01T09:24:15;5;5;
38288;PMS5003;24092;53.370;-6.588;2022-09-01T09:26:49;10;9;
38288;PMS5003;24092;53.370;-6.588;2022-09-01T09:29:16;5;4;
38288;PMS5003;24092;53.370;-6.588;2022-09-01T09:31:44;7;7;
38288;PMS5003;24092;53.370;-6.588;2022-09-01T09:34:15;6;6;
38288;PMS5003;24092;53.370;-6.588;2022-09-01T09:36:53;6;6;
38288;PMS5003;24092;53.370;-6.588;2022-09-01T09:39:21;6;6;
38288;PMS5003;24092;53.370;-6.588;2022-09-01T09:42:00;4;4;
38288;PMS5003;24092;53.370;-6.588;2022-09-01T09:44:31;6;5;
38288;PMS5003;24092;53.370;-6.588;2022-09-01T09:46:58;6;6;
38288;PMS5003;24092;53.370;-6.588;2022-09-01T09:49:26;12;12;
38288;PMS5003;24092;53.370;-6.588;2022-09-01T09:51:55;4;4;
38288;PMS5003;24092;53.370;-6.588;2022-09-01T09:54:40;8;8;
38288;PMS5003;24092;53.370;-6.588;2022-09-01T09:57:23;8;7;
38288;PMS5003;24092;53.370;-6.588;2022-09-01T09:59:53;7;6;
38288;PMS5003;24092;53.370;-6.588;2022-09-01T10:02:27;7;6;
38288;PMS5003;24092;53.370;-6.588;2022-09-01T10:04:58;6;6;
38288;PMS5003;24092;53.370;-6.588;2022-09-01T10:07:28;5;4;
38288;PMS5003;24092;53.370;-6.588;2022-09-01T10:09:58;7;4;
38288;PMS5003;24092;53.370;-6.588;2022-09-01T10:12:27;8;8;
38288;PMS5003;24092;53.370;-6.588;2022-09-01T10:14:57;4;4;
38288;PMS5003;24092;53.370;-6.588;2022-09-01T10:17:28;6;6;
38288;PMS5003;24092;53.370;-6.588;2022-09-01T10:19:58;6;6;
38288;PMS5003;24092;53.370;-6.588;2022-09-01T10:22:27;5;5;
38288;PMS5003;24092;53.370;-6.588;2022-09-01T10:24:56;6;5;
38288;PMS5003;24092;53.370;-6.588;2022-09-01T10:27:26;5;5;
38288;PMS5003;24092;53.370;-6.588;2022-09-01T10:30:01;6;6;
38288;PMS5003;24092;53.370;-6.588;2022-09-01T10:32:32;7;6;
38288;PMS5003;24092;53.370;-6.588;2022-09-01T10:35:04;4;3;
38288;PMS5003;24092;53.370;-6.588;2022-09-01T10:37:36;5;4;
38288;PMS5003;24092;53.370;-6.588;2022-09-01T10:40:13;6;4;
38288;PMS5003;24092;53.370;-6.588;2022-09-01T10:42:45;5;5;
38288;PMS5003;24092;53.370;-6.588;2022-09-01T10:45:16;4;4;
38288;PMS5003;24092;53.370;-6.588;2022-09-01T10:47:54;8;7;
38288;PMS5003;24092;53.370;-6.588;2022-09-01T10:50:23;3;3;
38288;PMS5003;24092;53.370;-6.588;2022-09-01T10:52:55;4;4;
38288;PMS5003;24092;53.370;-6.588;2022-09-01T10:55:29;6;6;
38288;PMS5003;24092;53.370;-6.588;2022-09-01T10:58:05;4;3;
38288;PMS5003;24092;53.370;-6.588;2022-09-01T11:00:46;3;2;
38288;PMS5003;24092;53.370;-6.588;2022-09-01T11:03:51;8;7;
38288;PMS5003;24092;53.370;-6.588;2022-09-01T11:07:30;4;3;
38288;PMS5003;24092;53.370;-6.588;2022-09-01T11:10:10;7;7;
38288;PMS5003;24092;53.370;-6.588;2022-09-01T11:12:56;4;4;
38288;PMS5003;24092;53.370;-6.588;2022-09-01T11:15:38;5;5;
38288;PMS5003;24092;53.370;-6.588;2022-09-01T11:18:07;9;8;
38288;PMS5003;24092;53.370;-6.588;2022-09-01T11:20:39;8;7;
38288;PMS5003;24092;53.370;-6.588;2022-09-01T11:23:10;3;3;
38288;PMS5003;24092;53.370;-6.588;2022-09-01T11:25:45;4;3;
38288;PMS5003;24092;53.370;-6.588;2022-09-01T11:28:37;5;4;
38288;PMS5003;24092;53.370;-6.588;2022-09-01T11:31:40;4;3;
38288;PMS5003;24092;53.370;-6.588;2022-09-01T11:34:10;4;4;
38288;PMS5003;24092;53.370;-6.588;2022-09-01T11:36:57;6;6;
38288;PMS5003;24092;53.370;-6.588;2022-09-01T11:39:30;4;4;
38288;PMS5003;24092;53.370;-6.588;2022-09-01T11:42:03;4;4;
38288;PMS5003;24092;53.370;-6.588;2022-09-01T11:44:36;5;4;
38288;PMS5003;24092;53.370;-6.588;2022-09-01T11:47:12;8;7;
38288;PMS5003;24092;53.370;-6.588;2022-09-01T11:49:47;3;2;
38288;PMS5003;24092;53.370;-6.588;2022-09-01T11:52:19;4;3;
38288;PMS5003;24092;53.370;-6.588;2022-09-01T11:54:48;3;3;
38288;PMS5003;24092;53.370;-6.588;2022-09-01T11:57:17;9;9;
38288;PMS5003;24092;53.370;-6.588;2022-09-01T11:59:47;3;3;
38288;PMS5003;24092;53.370;-6.588;2022-09-01T12:02:16;4;3;
38288;PMS5003;24092;53.370;-6.588;2022-09-01T12:04:45;4;2;
38288;PMS5003;24092;53.370;-6.588;2022-09-01T12:07:13;4;3;
38288;PMS5003;24092;53.370;-6.588;2022-09-01T12:09:52;6;5;
38288;PMS5003;24092;53.370;-6.588;2022-09-01T12:12:29;2;2;
38288;PMS5003;24092;53.370;-6.588;2022-09-01T12:15:00;2;2;
38288;PMS5003;24092;53.370;-6.588;2022-09-01T12:17:29;3;3;
38288;PMS5003;24092;53.370;-6.588;2022-09-01T12:20:14;6;6;
38288;PMS5003;24092;53.370;-6.588;2022-09-01T12:22:46;5;5;
38288;PMS5003;24092;53.370;-6.588;2022-09-01T12:25:17;3;3;
38288;PMS5003;24092;53.370;-6.588;2022-09-01T12:27:47;3;3;
38288;PMS5003;24092;53.370;-6.588;2022-09-01T12:30:14;4;4;
38288;PMS5003;24092;53.370;-6.588;2022-09-01T12:32:42;2;2;
38288;PMS5003;24092;53.370;-6.588;2022-09-01T12:35:13;3;3;
38288;PMS5003;24092;53.370;-6.588;2022-09-01T12:37:42;3;3;
38288;PMS5003;24092;53.370;-6.588;2022-09-01T12:40:20;4;3;
38288;PMS5003;24092;53.370;-6.588;2022-09-01T12:42:50;6;5;
38288;PMS5003;24092;53.370;-6.588;2022-09-01T12:45:35;3;2;
38288;PMS5003;24092;53.370;-6.588;2022-09-01T12:48:04;5;3;
38288;PMS5003;24092;53.370;-6.588;2022-09-01T12:50:35;5;5;
38288;PMS5003;24092;53.370;-6.588;2022-09-01T12:53:16;5;5;
38288;PMS5003;24092;53.370;-6.588;2022-09-01T12:55:57;2;2;
38288;PMS5003;24092;53.370;-6.588;2022-09-01T12:58:29;5;4;
38288;PMS5003;24092;53.370;-6.588;2022-09-01T13:00:59;10;7;
38288;PMS5003;24092;53.370;-6.588;2022-09-01T13:03:29;1;1;
38288;PMS5003;24092;53.370;-6.588;2022-09-01T13:05:58;5;4;
38288;PMS5003;24092;53.370;-6.588;2022-09-01T13:08:27;2;2;
38288;PMS5003;24092;53.370;-6.588;2022-09-01T13:10:57;2;2;
38288;PMS5003;24092;53.370;-6.588;2022-09-01T13:13:27;4;4;
38288;PMS5003;24092;53.370;-6.588;2022-09-01T13:15:55;3;3;
38288;PMS5003;24092;53.370;-6.588;2022-09-01T13:18:24;8;7;
38288;PMS5003;24092;53.370;-6.588;2022-09-01T13:20:53;4;4;
38288;PMS5003;24092;53.370;-6.588;2022-09-01T13:23:22;4;4;
38288;PMS5003;24092;53.370;-6.588;2022-09-01T13:25:51;5;4;
38288;PMS5003;24092;53.370;-6.588;2022-09-01T13:28:18;3;3;
38288;PMS5003;24092;53.370;-6.588;2022-09-01T13:30:47;4;4;
38288;PMS5003;24092;53.370;-6.588;2022-09-01T13:33:19;3;3;
38288;PMS5003;24092;53.370;-6.588;2022-09-01T13:35:46;4;4;
38288;PMS5003;24092;53.370;-6.588;2022-09-01T13:38:14;3;3;
38288;PMS5003;24092;53.370;-6.588;2022-09-01T13:40:42;3;2;
38288;PMS5003;24092;53.370;-6.588;2022-09-01T13:43:10;4;4;
38288;PMS5003;24092;53.370;-6.588;2022-09-01T13:45:37;4;3;
38288;PMS5003;24092;53.370;-6.588;2022-09-01T13:48:05;4;4;
38288;PMS5003;24092;53.370;-6.588;2022-09-01T13:50:33;4;4;
38288;PMS5003;24092;53.370;-6.588;2022-09-01T13:53:01;4;4;
38288;PMS5003;24092;53.370;-6.588;2022-09-01T13:55:29;5;5;
38288;PMS5003;24092;53.370;-6.588;2022-09-01T13:57:57;4;4;
38288;PMS5003;24092;53.370;-6.588;2022-09-01T14:00:25;4;4;
38288;PMS5003;24092;53.370;-6.588;2022-09-01T14:02:56;5;5;
38288;PMS5003;24092;53.370;-6.588;2022-09-01T14:05:27;5;4;
38288;PMS5003;24092;53.370;-6.588;2022-09-01T14:07:56;4;4;
38288;PMS5003;24092;53.370;-6.588;2022-09-01T14:10:25;2;2;
38288;PMS5003;24092;53.370;-6.588;2022-09-01T14:12:54;4;4;
38288;PMS5003;24092;53.370;-6.588;2022-09-01T14:15:20;4;4;
38288;PMS5003;24092;53.370;-6.588;2022-09-01T14:17:48;3;3;
38288;PMS5003;24092;53.370;-6.588;2022-09-01T14:20:18;4;4;
38288;PMS5003;24092;53.370;-6.588;2022-09-01T14:22:47;6;5;
38288;PMS5003;24092;53.370;-6.588;2022-09-01T14:25:16;8;7;
38288;PMS5003;24092;53.370;-6.588;2022-09-01T14:27:44;4;4;
38288;PMS5003;24092;53.370;-6.588;2022-09-01T14:30:14;4;3;
38288;PMS5003;24092;53.370;-6.588;2022-09-01T14:32:43;5;4;
38288;PMS5003;24092;53.370;-6.588;2022-09-01T14:35:11;5;5;
38288;PMS5003;24092;53.370;-6.588;2022-09-01T14:37:39;5;5;
38288;PMS5003;24092;53.370;-6.588;2022-09-01T14:40:08;7;5;
38288;PMS5003;24092;53.370;-6.588;2022-09-01T14:42:38;5;5;
38288;PMS5003;24092;53.370;-6.588;2022-09-01T14:45:06;4;4;
38288;PMS5003;24092;53.370;-6.588;2022-09-01T14:47:34;3;3;
38288;PMS5003;24092;53.370;-6.588;2022-09-01T14:50:00;5;4;
38288;PMS5003;24092;53.370;-6.588;2022-09-01T14:52:28;3;3;
38288;PMS5003;24092;53.370;-6.588;2022-09-01T14:54:55;4;3;
38288;PMS5003;24092;53.370;-6.588;2022-09-01T14:57:22;4;4;
38288;PMS5003;24092;53.370;-6.588;2022-09-01T14:59:49;5;4;
38288;PMS5003;24092;53.370;-6.588;2022-09-01T15:02:16;5;5;
38288;PMS5003;24092;53.370;-6.588;2022-09-01T15:04:43;5;5;
38288;PMS5003;24092;53.370;-6.588;2022-09-01T15:07:10;5;5;
38288;PMS5003;24092;53.370;-6.588;2022-09-01T15:09:36;7;5;
38288;PMS5003;24092;53.370;-6.588;2022-09-01T15:12:04;7;6;
38288;PMS5003;24092;53.370;-6.588;2022-09-01T15:14:31;6;4;
38288;PMS5003;24092;53.370;-6.588;2022-09-01T15:16:59;6;6;
38288;PMS5003;24092;53.370;-6.588;2022-09-01T15:19:27;8;6;
38288;PMS5003;24092;53.370;-6.588;2022-09-01T15:21:53;5;5;
38288;PMS5003;24092;53.370;-6.588;2022-09-01T15:24:20;7;6;
38288;PMS5003;24092;53.370;-6.588;2022-09-01T15:30:27;7;7;
38288;PMS5003;24092;53.370;-6.588;2022-09-01T15:32:54;8;8;
38288;PMS5003;24092;53.370;-6.588;2022-09-01T15:35:22;8;7;
38288;PMS5003;24092;53.370;-6.588;2022-09-01T15:37:50;7;7;
38288;PMS5003;24092;53.370;-6.588;2022-09-01T15:40:18;6;6;
38288;PMS5003;24092;53.370;-6.588;2022-09-01T15:42:48;9;8;
38288;PMS5003;24092;53.370;-6.588;2022-09-01T15:45:17;4;4;
38288;PMS5003;24092;53.370;-6.588;2022-09-01T15:47:46;7;5;
38288;PMS5003;24092;53.370;-6.588;2022-09-01T15:50:14;7;6;
38288;PMS5003;24092;53.370;-6.588;2022-09-01T15:52:46;6;6;
38288;PMS5003;24092;53.370;-6.588;2022-09-01T15:55:15;3;3;
38288;PMS5003;24092;53.370;-6.588;2022-09-01T15:57:44;3;3;
38288;PMS5003;24092;53.370;-6.588;2022-09-01T16:00:11;9;8;
38288;PMS5003;24092;53.370;-6.588;2022-09-01T16:02:39;4;4;
38288;PMS5003;24092;53.370;-6.588;2022-09-01T16:05:07;6;6;
38288;PMS5003;24092;53.370;-6.588;2022-09-01T16:07:35;6;5;
38288;PMS5003;24092;53.370;-6.588;2022-09-01T16:10:03;6;6;
38288;PMS5003;24092;53.370;-6.588;2022-09-01T16:12:31;5;5;
38288;PMS5003;24092;53.370;-6.588;2022-09-01T16:14:59;4;4;
38288;PMS5003;24092;53.370;-6.588;2022-09-01T16:17:27;6;6;
38288;PMS5003;24092;53.370;-6.588;2022-09-01T16:20:08;6;6;
38288;PMS5003;24092;53.370;-6.588;2022-09-01T16:22:40;7;7;
38288;PMS5003;24092;53.370;-6.588;2022-09-01T16:25:15;5;4;
38288;PMS5003;24092;53.370;-6.588;2022-09-01T16:27:49;7;7;
38288;PMS5003;24092;53.370;-6.588;2022-09-01T16:30:18;6;6;
38288;PMS5003;24092;53.370;-6.588;2022-09-01T16:32:47;7;6;
38288;PMS5003;24092;53.370;-6.588;2022-09-01T16:35:16;8;7;
38288;PMS5003;24092;53.370;-6.588;2022-09-01T16:37:44;6;6;
38288;PMS5003;24092;53.370;-6.588;2022-09-01T16:40:20;6;6;
38288;PMS5003;24092;53.370;-6.588;2022-09-01T16:43:01;26;24;
38288;PMS5003;24092;53.370;-6.588;2022-09-01T16:45:39;9;6;
38288;PMS5003;24092;53.370;-6.588;2022-09-01T16:48:17;6;6;
38288;PMS5003;24092;53.370;-6.588;2022-09-01T16:50:52;7;5;